createdAt,value
2023-03-10T00:01:29.762Z,37.20
2023-03-10T00:03:59.784Z,34.80
2023-03-10T00:06:33.032Z,35.50
2023-03-10T00:09:01.997Z,36.80
2023-03-10T00:11:30.047Z,37.20
2023-03-10T00:13:58.030Z,38.90
2023-03-10T00:16:29.837Z,41.30
2023-03-10T00:18:58.055Z,36.50
2023-03-10T00:21:30.123Z,36.90
2023-03-10T00:23:58.859Z,37.90
2023-03-10T00:26:31.636Z,39.50
2023-03-10T00:31:28.665Z,35.60
2023-03-10T00:33:58.670Z,37.80
2023-03-10T00:36:29.519Z,39.00
2023-03-10T00:39:01.213Z,38.60
2023-03-10T00:41:32.269Z,39.30
2023-03-10T00:44:01.101Z,39.70
2023-03-10T00:46:30.537Z,38.70
2023-03-10T00:48:59.049Z,38.00
2023-03-10T00:51:27.290Z,37.80
2023-03-10T00:53:55.337Z,40.50
2023-03-10T00:56:26.433Z,37.80
2023-03-10T00:59:00.029Z,40.00
2023-03-10T01:01:32.721Z,38.30
2023-03-10T01:04:06.253Z,40.50
2023-03-10T01:06:35.396Z,43.20
2023-03-10T01:09:04.635Z,41.40
2023-03-10T01:11:33.316Z,42.90
2023-03-10T01:14:05.172Z,42.40
2023-03-10T01:16:33.897Z,40.60
2023-03-10T01:19:02.348Z,39.10
2023-03-10T01:21:34.705Z,39.10
2023-03-10T01:24:04.283Z,39.40
2023-03-10T01:26:32.378Z,41.90
2023-03-10T01:29:00.488Z,41.00
2023-03-10T01:31:28.624Z,40.90
2023-03-10T01:33:56.798Z,40.40
2023-03-10T01:36:26.608Z,43.00
2023-03-10T01:38:56.627Z,40.90
2023-03-10T01:41:25.172Z,40.90
2023-03-10T01:43:57.012Z,44.00
2023-03-10T01:46:45.711Z,42.80
2023-03-10T01:49:28.575Z,40.70
2023-03-10T01:52:16.718Z,42.60
2023-03-10T01:55:06.814Z,42.10
2023-03-10T01:57:50.357Z,43.70
2023-03-10T02:00:22.928Z,41.90
2023-03-10T02:03:15.002Z,41.30
2023-03-10T02:06:01.399Z,42.70
2023-03-10T02:08:34.351Z,41.30
2023-03-10T02:11:02.636Z,41.30
2023-03-10T02:13:30.540Z,41.00
2023-03-10T02:15:58.720Z,43.20
2023-03-10T02:18:26.891Z,41.60
2023-03-10T02:21:36.653Z,39.30
2023-03-10T02:24:43.374Z,38.80
2023-03-10T02:27:24.908Z,39.30
2023-03-10T02:30:00.049Z,41.00
2023-03-10T02:32:31.290Z,41.90
2023-03-10T02:34:59.418Z,42.20
2023-03-10T02:37:31.170Z,41.70
2023-03-10T02:39:59.865Z,41.10
2023-03-10T02:42:35.106Z,40.90
2023-03-10T02:45:04.251Z,41.20
2023-03-10T02:47:32.245Z,42.10
2023-03-10T02:50:00.208Z,39.70
2023-03-10T02:53:06.798Z,37.80
2023-03-10T02:55:34.800Z,40.20
2023-03-10T02:58:03.771Z,41.80
2023-03-10T03:00:31.821Z,40.60
2023-03-10T03:02:59.777Z,40.00
2023-03-10T03:05:27.667Z,41.20
2023-03-10T03:07:55.569Z,40.50
2023-03-10T03:10:23.717Z,45.00
2023-03-10T03:12:51.930Z,48.40
2023-03-10T03:15:19.948Z,43.30
2023-03-10T03:17:48.108Z,55.70
2023-03-10T03:20:16.679Z,48.70
2023-03-10T03:22:45.958Z,54.50
2023-03-10T03:25:17.613Z,47.50
2023-03-10T03:27:45.928Z,40.50
2023-03-10T03:30:22.755Z,40.10
2023-03-10T03:32:52.084Z,41.30
2023-03-10T03:35:24.935Z,38.80
2023-03-10T03:37:54.284Z,39.00
2023-03-10T03:40:23.910Z,37.60
2023-03-10T03:42:54.085Z,39.40
2023-03-10T03:45:25.999Z,38.40
2023-03-10T03:47:54.183Z,40.70
2023-03-10T03:50:23.022Z,42.20
2023-03-10T03:52:51.396Z,40.30
2023-03-10T03:55:20.069Z,39.50
2023-03-10T03:57:48.225Z,41.40
2023-03-10T04:00:21.206Z,39.30
2023-03-10T04:02:49.509Z,38.80
2023-03-10T04:05:18.137Z,39.60
2023-03-10T04:07:48.256Z,40.70
2023-03-10T04:10:20.297Z,40.00
2023-03-10T04:12:48.237Z,41.10
2023-03-10T04:15:16.417Z,42.10
2023-03-10T04:17:44.536Z,42.20
2023-03-10T04:20:14.346Z,40.50
2023-03-10T04:22:42.668Z,41.50
2023-03-10T04:25:11.932Z,41.50
2023-03-10T04:27:39.939Z,40.90
2023-03-10T04:30:09.905Z,42.10
2023-03-10T04:32:38.119Z,42.60
2023-03-10T04:35:08.281Z,45.10
2023-03-10T04:37:36.291Z,43.30
2023-03-10T04:40:09.550Z,43.50
2023-03-10T04:42:37.460Z,42.10
2023-03-10T04:45:06.157Z,41.20
2023-03-10T04:47:34.117Z,43.60
2023-03-10T04:50:02.284Z,41.00
2023-03-10T04:52:30.246Z,39.70
2023-03-10T04:54:58.241Z,41.70
2023-03-10T04:57:26.195Z,43.40
2023-03-10T04:59:54.488Z,43.70
2023-03-10T05:02:22.446Z,41.90
2023-03-10T05:04:50.849Z,42.80
2023-03-10T05:07:18.807Z,42.30
2023-03-10T05:09:46.900Z,46.40
2023-03-10T05:12:14.826Z,49.30
2023-03-10T05:14:42.801Z,54.90
2023-03-10T05:17:11.505Z,53.20
2023-03-10T05:19:39.573Z,44.50
2023-03-10T05:22:08.145Z,45.50
2023-03-10T05:24:36.778Z,42.00
2023-03-10T05:27:04.889Z,48.30
2023-03-10T05:29:32.882Z,52.60
2023-03-10T05:32:00.885Z,51.30
2023-03-10T05:34:28.929Z,53.30
2023-03-10T05:36:57.018Z,57.10
2023-03-10T05:39:25.079Z,62.10
2023-03-10T05:41:53.143Z,71.70
2023-03-10T05:44:21.227Z,69.10
2023-03-10T05:46:49.339Z,64.10
2023-03-10T05:49:17.385Z,59.10
2023-03-10T05:51:45.370Z,57.00
2023-03-10T05:54:13.837Z,56.60
2023-03-10T05:56:42.700Z,52.20
2023-03-10T05:59:11.389Z,52.10
2023-03-10T06:01:43.285Z,54.90
2023-03-10T06:04:13.249Z,54.80
2023-03-10T06:06:41.474Z,53.40
2023-03-10T06:09:09.856Z,55.90
2023-03-10T06:11:38.282Z,56.90
2023-03-10T06:14:06.380Z,56.50
2023-03-10T06:16:36.596Z,56.10
2023-03-10T06:19:04.667Z,56.30
2023-03-10T06:21:32.647Z,56.60
2023-03-10T06:24:00.743Z,54.60
2023-03-10T06:26:28.794Z,54.20
2023-03-10T06:28:56.693Z,53.70
2023-03-10T06:31:25.521Z,53.70
2023-03-10T06:33:54.077Z,54.20
2023-03-10T06:36:23.246Z,57.40
2023-03-10T06:38:51.358Z,62.60
2023-03-10T06:41:20.490Z,65.10
2023-03-10T06:43:48.603Z,72.00
2023-03-10T06:46:17.432Z,68.60
2023-03-10T06:48:45.547Z,71.00
2023-03-10T06:51:17.457Z,75.50
2023-03-10T06:53:46.099Z,75.70
2023-03-10T06:56:17.924Z,72.60
2023-03-10T06:58:46.676Z,76.50
2023-03-10T07:01:24.240Z,80.90
2023-03-10T07:03:53.500Z,75.40
2023-03-10T07:06:22.532Z,71.50
2023-03-10T07:08:51.768Z,65.70
2023-03-10T07:11:20.783Z,60.20
2023-03-10T07:13:48.865Z,57.80
2023-03-10T07:16:17.570Z,57.10
2023-03-10T07:18:45.896Z,62.50
2023-03-10T07:21:19.045Z,62.90
2023-03-10T07:23:47.421Z,72.60
2023-03-10T07:26:16.365Z,70.10
2023-03-10T07:28:45.325Z,72.40
2023-03-10T07:31:14.656Z,66.20
2023-03-10T07:33:46.450Z,62.00
2023-03-10T07:36:17.963Z,64.50
2023-03-10T07:38:46.404Z,67.40
2023-03-10T07:41:19.410Z,57.60
2023-03-10T07:43:48.059Z,61.00
2023-03-10T07:46:16.217Z,63.70
2023-03-10T07:48:45.000Z,60.60
2023-03-10T07:51:13.560Z,62.60
2023-03-10T07:53:42.053Z,59.20
2023-03-10T07:56:15.139Z,56.50
2023-03-10T07:58:46.133Z,56.30
2023-03-10T08:01:18.003Z,50.40
2023-03-10T08:03:47.112Z,45.90
2023-03-10T08:06:25.711Z,23.70
2023-03-10T08:08:55.619Z,12.60
2023-03-10T08:11:23.827Z,12.60
2023-03-10T08:13:51.929Z,11.60
2023-03-10T08:16:22.149Z,11.20
2023-03-10T08:18:53.511Z,9.70
2023-03-10T08:21:22.107Z,8.00
2023-03-10T08:23:50.352Z,7.40
2023-03-10T08:26:19.336Z,6.90
2023-03-10T08:28:48.146Z,6.50
2023-03-10T08:31:19.892Z,7.20
2023-03-10T08:33:48.613Z,6.60
2023-03-10T08:36:23.138Z,7.40
2023-03-10T08:38:55.805Z,6.30
2023-03-10T08:41:32.479Z,6.90
2023-03-10T08:44:01.199Z,7.30
2023-03-10T08:46:32.257Z,7.30
2023-03-10T08:49:00.968Z,6.60
2023-03-10T08:51:29.412Z,6.50
2023-03-10T08:53:58.249Z,7.30
2023-03-10T08:56:27.205Z,6.70
2023-03-10T08:58:59.144Z,6.10
2023-03-10T09:01:34.486Z,6.10
2023-03-10T09:04:05.304Z,6.10
2023-03-10T09:06:33.489Z,6.60
2023-03-10T09:09:05.014Z,6.70
2023-03-10T09:11:38.848Z,6.50
2023-03-10T09:14:09.123Z,6.10
2023-03-10T09:16:39.664Z,6.20
2023-03-10T09:19:07.904Z,6.30
2023-03-10T09:21:36.501Z,5.70
2023-03-10T09:24:04.938Z,5.60
2023-03-10T09:26:34.564Z,5.10
2023-03-10T09:29:03.224Z,5.50
2023-03-10T09:31:37.374Z,5.70
2023-03-10T09:34:06.555Z,5.10
2023-03-10T09:36:35.415Z,5.60
2023-03-10T09:39:04.892Z,5.40
2023-03-10T09:41:53.233Z,5.80
2023-03-10T09:44:56.760Z,4.90
2023-03-10T09:47:57.934Z,4.90
2023-03-10T09:50:46.896Z,4.70
2023-03-10T09:53:29.475Z,4.90
2023-03-10T09:55:57.612Z,4.70
2023-03-10T09:59:25.508Z,4.40
2023-03-10T10:01:53.981Z,4.70
2023-03-10T10:04:37.077Z,5.00
2023-03-10T10:09:45.269Z,4.10
2023-03-10T10:12:17.499Z,4.70
2023-03-10T10:14:56.576Z,4.30
2023-03-10T10:18:16.229Z,3.80
2023-03-10T10:20:53.895Z,3.40
2023-03-10T10:23:29.310Z,3.00
2023-03-10T10:26:02.713Z,3.30
2023-03-10T10:28:42.177Z,2.90
2023-03-10T10:31:18.542Z,2.70
2023-03-10T10:34:04.056Z,2.60
2023-03-10T10:36:37.852Z,2.10
2023-03-10T10:39:31.520Z,2.10
2023-03-10T10:42:29.109Z,2.10
2023-03-10T10:45:05.873Z,2.30
2023-03-10T10:47:49.547Z,2.10
2023-03-10T10:50:35.630Z,1.80
2023-03-10T10:53:21.275Z,2.30
2023-03-10T10:56:05.904Z,2.00
2023-03-10T10:58:35.516Z,2.10
2023-03-10T11:01:12.845Z,1.90
2023-03-10T11:03:49.661Z,2.00
2023-03-10T11:06:32.314Z,1.80
2023-03-10T11:09:23.586Z,2.20
2023-03-10T11:12:38.680Z,2.20
2023-03-10T11:15:33.859Z,2.20
2023-03-10T11:18:09.180Z,2.20
2023-03-10T11:20:43.630Z,1.80
2023-03-10T11:23:45.245Z,2.00
2023-03-10T11:26:48.326Z,2.30
2023-03-10T11:29:33.737Z,1.80
2023-03-10T11:32:32.653Z,2.30
2023-03-10T11:35:14.139Z,2.00
2023-03-10T11:37:52.436Z,1.90
2023-03-10T11:40:42.664Z,2.10
2023-03-10T11:43:43.213Z,1.90
2023-03-10T11:46:55.741Z,2.10
2023-03-10T11:49:27.489Z,1.60
2023-03-10T11:52:01.593Z,2.00
2023-03-10T11:54:46.098Z,1.80
2023-03-10T11:57:25.536Z,1.90
2023-03-10T12:00:02.104Z,2.10
2023-03-10T12:02:45.427Z,2.10
2023-03-10T12:05:27.313Z,2.30
2023-03-10T12:08:01.641Z,2.10
2023-03-10T12:10:31.857Z,2.00
2023-03-10T12:13:02.297Z,1.90
2023-03-10T12:15:40.123Z,1.80
2023-03-10T12:18:08.729Z,2.00
2023-03-10T12:20:37.678Z,2.20
2023-03-10T12:23:13.337Z,1.80
2023-03-10T12:25:46.285Z,1.80
2023-03-10T12:28:17.505Z,1.60
2023-03-10T12:31:15.565Z,1.60
2023-03-10T12:33:46.025Z,1.80
2023-03-10T12:36:37.471Z,1.70
2023-03-10T12:39:27.747Z,1.40
2023-03-10T12:42:04.526Z,1.60
2023-03-10T12:44:36.504Z,2.00
2023-03-10T12:47:26.797Z,1.70
2023-03-10T12:50:27.325Z,1.80
2023-03-10T12:53:25.180Z,1.60
2023-03-10T12:56:11.833Z,1.60
2023-03-10T12:59:49.585Z,1.80
2023-03-10T13:02:49.541Z,1.70
2023-03-10T13:05:32.029Z,1.60
2023-03-10T13:08:20.989Z,1.50
2023-03-10T13:10:57.254Z,2.40
2023-03-10T13:13:32.019Z,2.30
2023-03-10T13:16:06.833Z,2.40
2023-03-10T13:18:35.805Z,2.70
2023-03-10T13:21:04.241Z,2.50
2023-03-10T13:23:35.519Z,2.80
2023-03-10T13:26:09.666Z,2.60
2023-03-10T13:28:38.965Z,3.10
2023-03-10T13:31:16.006Z,3.00
2023-03-10T13:33:52.747Z,2.60
2023-03-10T13:36:29.234Z,3.00
2023-03-10T13:39:25.582Z,3.30
2023-03-10T13:41:58.897Z,3.30
2023-03-10T13:44:38.975Z,3.50
2023-03-10T13:47:20.771Z,3.00
2023-03-10T13:49:52.843Z,3.10
2023-03-10T13:52:25.319Z,3.70
2023-03-10T13:55:16.028Z,4.30
2023-03-10T13:57:45.710Z,5.00
2023-03-10T14:00:18.823Z,4.50
2023-03-10T14:02:49.134Z,5.40
2023-03-10T14:05:37.611Z,6.10
2023-03-10T14:08:06.824Z,6.50
2023-03-10T14:10:34.852Z,6.10
2023-03-10T14:13:02.819Z,5.20
2023-03-10T14:15:38.869Z,5.40
2023-03-10T14:18:06.867Z,5.70
2023-03-10T14:20:38.967Z,5.70
2023-03-10T14:23:19.118Z,5.10
2023-03-10T14:25:56.782Z,5.20
2023-03-10T14:28:40.364Z,4.00
2023-03-10T14:31:28.193Z,4.40
2023-03-10T14:33:56.572Z,4.70
2023-03-10T14:36:25.137Z,2.60
2023-03-10T14:38:53.173Z,2.10
2023-03-10T14:41:24.604Z,1.90
2023-03-10T14:43:52.592Z,1.60
2023-03-10T14:46:20.778Z,1.60
2023-03-10T14:48:48.967Z,1.70
2023-03-10T14:51:32.506Z,1.80
2023-03-10T14:54:00.896Z,2.00
2023-03-10T14:56:28.967Z,2.20
2023-03-10T14:58:58.444Z,3.00
2023-03-10T15:01:26.500Z,3.20
2023-03-10T15:03:54.682Z,3.30
2023-03-10T15:06:23.040Z,3.10
2023-03-10T15:08:51.276Z,3.60
2023-03-10T15:11:34.175Z,3.50
2023-03-10T15:14:19.071Z,3.40
2023-03-10T15:16:47.284Z,3.50
2023-03-10T15:19:24.596Z,3.10
2023-03-10T15:21:53.455Z,3.70
2023-03-10T15:24:21.801Z,3.30
2023-03-10T15:26:50.268Z,3.40
2023-03-10T15:29:20.150Z,4.30
2023-03-10T15:31:48.386Z,3.80
2023-03-10T15:34:17.162Z,3.70
2023-03-10T15:36:46.222Z,4.00
2023-03-10T15:39:18.971Z,3.80
2023-03-10T15:41:53.465Z,4.00
2023-03-10T15:44:21.445Z,3.80
2023-03-10T15:46:52.806Z,4.10
2023-03-10T15:49:21.402Z,4.30
2023-03-10T15:51:49.571Z,3.70
2023-03-10T15:54:17.846Z,3.90
2023-03-10T15:56:45.835Z,3.80
2023-03-10T15:59:14.187Z,5.10
2023-03-10T16:01:42.693Z,5.40
2023-03-10T16:04:10.911Z,5.60
2023-03-10T16:06:39.427Z,6.60
2023-03-10T16:09:09.105Z,6.70
2023-03-10T16:11:37.517Z,6.80
2023-03-10T16:14:05.624Z,9.20
2023-03-10T16:16:33.805Z,10.50
2023-03-10T16:19:02.690Z,11.20
2023-03-10T16:21:30.748Z,11.60
2023-03-10T16:23:58.719Z,14.10
2023-03-10T16:26:26.957Z,13.80
2023-03-10T16:28:55.425Z,12.10
2023-03-10T16:31:26.343Z,12.30
2023-03-10T16:33:56.541Z,12.90
2023-03-10T16:36:27.229Z,15.20
2023-03-10T16:38:55.543Z,14.70
2023-03-10T16:41:24.332Z,14.80
2023-03-10T16:43:54.713Z,15.80
2023-03-10T16:46:26.219Z,15.70
2023-03-10T16:48:55.641Z,13.20
2023-03-10T16:51:35.554Z,12.00
2023-03-10T16:54:06.363Z,14.20
2023-03-10T16:56:41.877Z,14.30
2023-03-10T16:59:26.630Z,14.90
2023-03-10T17:01:54.887Z,15.70
2023-03-10T17:04:23.292Z,15.40
2023-03-10T17:06:51.716Z,15.30
2023-03-10T17:09:20.107Z,15.50
2023-03-10T17:11:54.869Z,16.40
2023-03-10T17:14:23.835Z,15.80
2023-03-10T17:16:54.554Z,14.70
2023-03-10T17:19:28.884Z,14.90
2023-03-10T17:21:58.431Z,14.40
2023-03-10T17:24:27.385Z,14.10
2023-03-10T17:26:55.645Z,13.60
2023-03-10T17:29:23.884Z,14.30
2023-03-10T17:31:52.464Z,12.90
2023-03-10T17:34:20.929Z,15.30
2023-03-10T17:36:52.056Z,29.10
2023-03-10T17:39:22.929Z,46.80
2023-03-10T17:41:51.066Z,26.90
2023-03-10T17:44:19.487Z,25.10
2023-03-10T17:46:50.815Z,24.70
2023-03-10T17:49:19.240Z,19.80
2023-03-10T17:51:47.464Z,25.30
2023-03-10T17:54:22.877Z,56.70
2023-03-10T17:56:50.909Z,101.50
2023-03-10T17:59:19.189Z,59.90
2023-03-10T18:01:47.487Z,84.30
2023-03-10T18:04:15.588Z,97.50
2023-03-10T18:06:44.079Z,97.50
2023-03-10T18:09:14.312Z,102.20
2023-03-10T18:11:42.986Z,94.50
2023-03-10T18:14:11.437Z,85.90
2023-03-10T18:16:40.516Z,72.20
2023-03-10T18:19:10.734Z,74.50
2023-03-10T18:21:39.727Z,68.80
2023-03-10T18:24:13.111Z,57.10
2023-03-10T18:26:45.746Z,54.20
2023-03-10T18:29:14.919Z,53.90
2023-03-10T18:31:42.979Z,47.80
2023-03-10T18:34:11.147Z,61.10
2023-03-10T18:36:39.826Z,56.70
2023-03-10T18:39:09.163Z,57.00
2023-03-10T18:41:37.935Z,53.60
2023-03-10T18:44:06.119Z,53.50
2023-03-10T18:46:34.664Z,57.40
2023-03-10T18:49:02.654Z,54.40
2023-03-10T18:51:30.737Z,73.50
2023-03-10T18:53:59.167Z,70.00
2023-03-10T18:56:29.246Z,62.90
2023-03-10T18:58:57.439Z,54.20
2023-03-10T19:01:26.790Z,56.20
2023-03-10T19:03:55.081Z,43.30
2023-03-10T19:06:23.205Z,34.70
2023-03-10T19:08:53.431Z,25.20
2023-03-10T19:11:24.487Z,14.70
2023-03-10T19:13:53.034Z,12.10
2023-03-10T19:16:21.639Z,9.40
2023-03-10T19:18:49.768Z,7.60
2023-03-10T19:21:17.992Z,8.30
2023-03-10T19:23:46.653Z,7.90
2023-03-10T19:26:15.537Z,9.20
2023-03-10T19:28:43.845Z,10.20
2023-03-10T19:31:15.126Z,10.10
2023-03-10T19:33:43.423Z,12.20
2023-03-10T19:36:13.725Z,14.30
2023-03-10T19:38:47.093Z,16.90
2023-03-10T19:41:17.615Z,19.20
2023-03-10T19:43:49.189Z,23.40
2023-03-10T19:46:19.413Z,23.20
2023-03-10T19:48:47.627Z,21.00
2023-03-10T19:51:23.860Z,19.30
2023-03-10T19:53:53.936Z,19.20
2023-03-10T19:56:26.606Z,19.60
2023-03-10T19:58:59.643Z,19.40
2023-03-10T20:01:28.782Z,18.40
2023-03-10T20:04:01.723Z,18.60
2023-03-10T20:06:30.133Z,18.60
2023-03-10T20:08:58.844Z,21.30
2023-03-10T20:11:27.269Z,17.80
2023-03-10T20:13:55.851Z,17.40
2023-03-10T20:16:27.642Z,18.00
2023-03-10T20:18:56.185Z,15.50
2023-03-10T20:21:25.951Z,16.60
2023-03-10T20:23:56.975Z,15.90
2023-03-10T20:26:25.621Z,18.00
2023-03-10T20:28:54.198Z,16.30
2023-03-10T20:31:24.027Z,16.40
2023-03-10T20:33:55.316Z,16.60
2023-03-10T20:36:23.883Z,17.00
2023-03-10T20:38:52.261Z,16.70
2023-03-10T20:41:21.974Z,18.60
2023-03-10T20:43:50.777Z,18.90
2023-03-10T20:46:19.761Z,19.00
2023-03-10T20:48:50.859Z,17.70
2023-03-10T20:51:23.367Z,17.20
2023-03-10T20:53:52.626Z,18.90
2023-03-10T20:56:20.948Z,17.80
2023-03-10T20:58:49.497Z,15.40
2023-03-10T21:01:21.116Z,13.80
2023-03-10T21:03:54.842Z,13.90
2023-03-10T21:06:25.520Z,12.80
2023-03-10T21:08:54.268Z,12.10
2023-03-10T21:11:22.855Z,11.70
2023-03-10T21:13:51.950Z,10.60
2023-03-10T21:16:20.950Z,10.50
2023-03-10T21:18:49.422Z,9.60
2023-03-10T21:21:17.569Z,9.60
2023-03-10T21:23:47.213Z,9.10
2023-03-10T21:26:20.334Z,9.50
2023-03-10T21:28:50.506Z,10.30
2023-03-10T21:31:19.516Z,10.00
2023-03-10T21:33:48.321Z,9.90
2023-03-10T21:36:26.997Z,10.20
2023-03-10T21:38:59.932Z,10.20
2023-03-10T21:41:40.036Z,8.90
2023-03-10T21:44:08.885Z,7.80
2023-03-10T21:46:37.146Z,7.50
2023-03-10T21:49:05.471Z,7.20
2023-03-10T21:51:35.151Z,7.00
2023-03-10T21:54:03.934Z,7.30
2023-03-10T21:56:32.259Z,6.30
2023-03-10T21:59:00.528Z,5.40
2023-03-10T22:01:28.969Z,6.40
2023-03-10T22:03:58.264Z,6.60
2023-03-10T22:06:27.563Z,6.40
2023-03-10T22:08:56.604Z,6.00
2023-03-10T22:11:25.375Z,5.80
2023-03-10T22:13:54.535Z,6.40
2023-03-10T22:16:23.709Z,6.60
2023-03-10T22:18:52.679Z,6.10
2023-03-10T22:21:22.566Z,7.10
2023-03-10T22:23:51.934Z,6.40
2023-03-10T22:26:20.803Z,7.30
2023-03-10T22:28:49.543Z,5.70
2023-03-10T22:31:18.547Z,6.60
2023-03-10T22:33:47.268Z,6.10
2023-03-10T22:36:16.131Z,6.00
2023-03-10T22:38:44.457Z,6.10
2023-03-10T22:41:13.228Z,6.30
2023-03-10T22:43:42.076Z,6.70
2023-03-10T22:46:14.237Z,5.90
2023-03-10T22:48:43.933Z,6.30
2023-03-10T22:51:18.624Z,6.70
2023-03-10T22:53:47.332Z,6.50
2023-03-10T22:56:16.368Z,6.90
2023-03-10T22:58:45.054Z,5.90
2023-03-10T23:01:13.398Z,6.50
2023-03-10T23:03:41.824Z,6.30
2023-03-10T23:06:13.522Z,6.70
2023-03-10T23:08:44.062Z,6.20
2023-03-10T23:11:15.194Z,7.00
2023-03-10T23:13:43.248Z,8.70
2023-03-10T23:16:11.514Z,7.40
2023-03-10T23:18:39.872Z,7.50
2023-03-10T23:21:08.151Z,9.20
2023-03-10T23:23:36.418Z,7.50
2023-03-10T23:26:05.238Z,7.90
2023-03-10T23:28:33.493Z,7.20
2023-03-10T23:31:01.830Z,8.20
2023-03-10T23:33:30.843Z,8.00
2023-03-10T23:35:59.153Z,7.90
2023-03-10T23:38:27.784Z,7.40
2023-03-10T23:40:55.941Z,7.40
2023-03-10T23:43:25.590Z,8.10
2023-03-10T23:45:53.953Z,8.00
2023-03-10T23:48:24.776Z,6.90
2023-03-10T23:50:53.095Z,8.30
2023-03-10T23:53:21.216Z,6.90
2023-03-10T23:55:49.587Z,5.80
2023-03-10T23:58:19.704Z,6.30
